Mercini Lady — A8DL4 — position and weather

sailwx.info

Track history (hours):
 
Tides and Currents Weather Stations Pressure Air Temp Water Temp Dewpoint Dewpoint Depression Visibility Wind Speed Wind Dir Waves Ship Positions

Mercini Lady

Last reported at 2014-Nov-15 10:32 UTC. Time now 2014-Nov-28 03:55 UTC.
Position N 01°09' E 103°44'.
Warning: this ship's position is 12 days out of date.

Length 182 m; draft 7.6 m.

Type: Tanker. MMSI: 636012102.

Date/timePositionNaut miles runAvg speedWind from/ knotsBaromVisibWave heightAir tempDewpointWater temp
2014-Nov-15 10:32N 01°09' E 103°44'6 6.5
2014-Nov-15 09:33N 01°13' E 103°49'1 0.0
2014-Nov-14 01:33N 01°12' E 103°48'1 1.2
2014-Nov-14 00:30N 01°14' E 103°48'0 0.0
2014-Nov-13 23:25N 01°14' E 103°48'0 0.1
2014-Nov-13 22:32N 01°13' E 103°48'0 0.0
2014-Nov-13 21:32N 01°13' E 103°48'0 0.1
2014-Nov-13 20:33N 01°13' E 103°48'0 0.0
2014-Nov-13 19:18N 01°13' E 103°48'0 0.2
2014-Nov-13 18:28N 01°13' E 103°48'0 0.1
2014-Nov-13 17:28N 01°13' E 103°48'0 0.1
2014-Nov-13 16:32N 01°14' E 103°48'0 0.0
2014-Nov-13 15:32N 01°13' E 103°48'0 0.0
2014-Nov-13 14:24N 01°13' E 103°48'0 0.1
2014-Nov-13 13:25N 01°13' E 103°48'1 0.8
2014-Nov-13 12:32N 01°13' E 103°49'7 6.7
2014-Nov-13 11:33N 01°14' E 103°55'5 4.7
2014-Nov-13 10:31N 01°16' E 103°60'7 7.6
2014-Nov-13 09:33N 01°17' E 104°07'  
Track history (hours):
 
Tides and Currents Weather Stations Pressure Air Temp Water Temp Dewpoint Dewpoint Depression Visibility Wind Speed Wind Dir Waves Ship Positions

Mercini Lady

Last reported at 2014-Nov-15 10:32 UTC. Time now 2014-Nov-28 03:55 UTC.
Position N 01°09' E 103°44'.
Warning: this ship's position is 12 days out of date.

Length 182 m; draft 7.6 m.

Type: Tanker. MMSI: 636012102.

Date/timePositionNaut miles runAvg speedWind from/ knotsBaromVisibWave heightAir tempDewpointWater temp
2014-Nov-15 10:32N 01°09' E 103°44'6 6.5
2014-Nov-15 09:33N 01°13' E 103°49'1 0.0
2014-Nov-14 01:33N 01°12' E 103°48'1 1.2
2014-Nov-14 00:30N 01°14' E 103°48'0 0.0
2014-Nov-13 23:25N 01°14' E 103°48'0 0.1
2014-Nov-13 22:32N 01°13' E 103°48'0 0.0
2014-Nov-13 21:32N 01°13' E 103°48'0 0.1
2014-Nov-13 20:33N 01°13' E 103°48'0 0.0
2014-Nov-13 19:18N 01°13' E 103°48'0 0.2
2014-Nov-13 18:28N 01°13' E 103°48'0 0.1
2014-Nov-13 17:28N 01°13' E 103°48'0 0.1
2014-Nov-13 16:32N 01°14' E 103°48'0 0.0
2014-Nov-13 15:32N 01°13' E 103°48'0 0.0
2014-Nov-13 14:24N 01°13' E 103°48'0 0.1
2014-Nov-13 13:25N 01°13' E 103°48'1 0.8
2014-Nov-13 12:32N 01°13' E 103°49'7 6.7
2014-Nov-13 11:33N 01°14' E 103°55'5 4.7
2014-Nov-13 10:31N 01°16' E 103°60'7 7.6
2014-Nov-13 09:33N 01°17' E 104°07'  

Dump ship's entire track history